Tingri, China
Current Conditions -  °F | °C
As of 2:50 PM on Friday 24 Oct 2014 (Local Time) from VNKT Reporting Station
Few Clouds Few Clouds  
Wind Chill: 73°   Ceiling: Unl
Heat Index: 73°   Visibility: 6mi
Dew Point: 55°   Wind: 5mph
Humidity: 53%   Direction: 280°W
Pressure: 30.09"   Gusts: NA
Location:  28.63°N, 87.08°E
Report Text: VNKT 240650Z 28004KT 9999 FEW025 23/13 Q1019 NOSIG
Loading
Personal Weather Stations






























Interactive Weather Map
Tropical Storm Tracking
New forecast layout! Learn more

10-Day Weather Forecast

Advertisements
Track Severe Weather on mobile